Raccoon Bend, Texas
Current Conditions -  °F | °C
As of 12:35 AM on Friday 31 Oct 2014 (Local Time) from K11R Reporting Station
Clear Clear  
Wind Chill: 62°   Ceiling: Unl
Heat Index: 62°   Visibility: 10mi
Dew Point: 56°   Wind: 0mph
Humidity: 81%   Direction: NA
Pressure: 30.12"   Gusts: NA
Location:  29.9944°N, 96.2595°W
Report Text: K11R 310535Z AUTO 00000KT 10SM CLR 17/13 A3012 RMK AO2 T01650133
Loading
Personal Weather Stations






























Interactive Weather Map
Tropical Storm Tracking
New forecast layout! Learn more

10-Day Weather Forecast

Advertisements
Track Severe Weather on mobile